sensor_id;sensor_type;location;lat;lon;timestamp;pressure;altitude;pressure_sealevel;temperature;humidity
12793;BME280;6460;42.684;23.260;2023-07-29T06:57:00;94460.41;;;24.67;48.84
12793;BME280;6460;42.684;23.260;2023-07-29T06:59:28;94465.97;;;24.76;48.71
12793;BME280;6460;42.684;23.260;2023-07-29T07:01:55;94468.13;;;24.81;51.32
12793;BME280;6460;42.684;23.260;2023-07-29T07:04:22;94460.28;;;25.23;47.02
12793;BME280;6460;42.684;23.260;2023-07-29T07:06:49;94463.16;;;25.50;45.73
12793;BME280;6460;42.684;23.260;2023-07-29T07:09:16;94463.91;;;25.51;45.16
12793;BME280;6460;42.684;23.260;2023-07-29T07:11:43;94463.91;;;25.51;45.40
12793;BME280;6460;42.684;23.260;2023-07-29T07:14:12;94459.72;;;25.37;46.06
12793;BME280;6460;42.684;23.260;2023-07-29T07:16:39;94459.72;;;25.86;46.75
12793;BME280;6460;42.684;23.260;2023-07-29T07:19:06;94459.19;;;26.27;43.53
12793;BME280;6460;42.684;23.260;2023-07-29T07:21:32;94452.16;;;26.36;42.67
12793;BME280;6460;42.684;23.260;2023-07-29T07:24:00;94455.66;;;26.36;43.64
12793;BME280;6460;42.684;23.260;2023-07-29T07:26:27;94456.41;;;26.73;43.14
12793;BME280;6460;42.684;23.260;2023-07-29T07:28:54;94457.94;;;26.65;41.94
12793;BME280;6460;42.684;23.260;2023-07-29T07:31:23;94452.31;;;26.41;43.21
12793;BME280;6460;42.684;23.260;2023-07-29T07:33:51;94447.81;;;26.71;42.63
12793;BME280;6460;42.684;23.260;2023-07-29T07:36:18;94449.69;;;26.83;43.98
12793;BME280;6460;42.684;23.260;2023-07-29T07:38:45;94447.00;;;27.07;42.15
12793;BME280;6460;42.684;23.260;2023-07-29T07:41:12;94442.47;;;27.27;41.23
12793;BME280;6460;42.684;23.260;2023-07-29T07:43:39;94441.16;;;27.56;40.84
12793;BME280;6460;42.684;23.260;2023-07-29T07:46:07;94443.03;;;27.50;39.74
12793;BME280;6460;42.684;23.260;2023-07-29T07:48:35;94447.16;;;27.03;40.95
12793;BME280;6460;42.684;23.260;2023-07-29T07:51:10;94444.00;;;27.28;40.91
12793;BME280;6460;42.684;23.260;2023-07-29T07:53:38;94448.22;;;27.57;39.71
12793;BME280;6460;42.684;23.260;2023-07-29T07:56:06;94447.44;;;27.80;38.61
12793;BME280;6460;42.684;23.260;2023-07-29T07:58:33;94438.72;;;28.05;38.59
12793;BME280;6460;42.684;23.260;2023-07-29T08:01:01;94445.88;;;27.88;39.10
12793;BME280;6460;42.684;23.260;2023-07-29T08:03:29;94441.28;;;28.32;37.86
12793;BME280;6460;42.684;23.260;2023-07-29T08:05:58;94440.16;;;28.54;36.77
12793;BME280;6460;42.684;23.260;2023-07-29T08:08:25;94438.53;;;28.71;37.08
12793;BME280;6460;42.684;23.260;2023-07-29T08:10:52;94443.88;;;28.74;37.05
12793;BME280;6460;42.684;23.260;2023-07-29T08:13:20;94446.03;;;28.70;37.80
12793;BME280;6460;42.684;23.260;2023-07-29T08:15:48;94448.81;;;28.70;38.13
12793;BME280;6460;42.684;23.260;2023-07-29T08:18:16;94445.38;;;28.75;37.89
12793;BME280;6460;42.684;23.260;2023-07-29T08:20:51;94453.13;;;28.86;37.38
12793;BME280;6460;42.684;23.260;2023-07-29T08:23:21;94448.34;;;29.16;36.57
12793;BME280;6460;42.684;23.260;2023-07-29T08:25:52;94446.03;;;29.14;36.49
12793;BME280;6460;42.684;23.260;2023-07-29T08:28:22;94445.09;;;29.03;35.17
12793;BME280;6460;42.684;23.260;2023-07-29T08:30:49;94448.69;;;29.23;35.46
12793;BME280;6460;42.684;23.260;2023-07-29T08:33:16;94441.28;;;29.79;35.73
12793;BME280;6460;42.684;23.260;2023-07-29T08:35:44;94442.47;;;30.13;35.37
12793;BME280;6460;42.684;23.260;2023-07-29T08:38:11;94441.25;;;30.34;34.17
12793;BME280;6460;42.684;23.260;2023-07-29T08:40:44;94442.41;;;30.48;33.71
12793;BME280;6460;42.684;23.260;2023-07-29T08:43:14;94438.41;;;30.49;32.85
12793;BME280;6460;42.684;23.260;2023-07-29T08:45:44;94438.28;;;30.37;32.21
12793;BME280;6460;42.684;23.260;2023-07-29T08:48:12;94435.19;;;30.35;32.54
12793;BME280;6460;42.684;23.260;2023-07-29T08:50:44;94433.69;;;29.94;31.71
12793;BME280;6460;42.684;23.260;2023-07-29T08:53:12;94426.56;;;30.08;31.22
12793;BME280;6460;42.684;23.260;2023-07-29T08:55:41;94424.84;;;29.75;32.46
12793;BME280;6460;42.684;23.260;2023-07-29T08:58:10;94427.56;;;29.90;32.38
12793;BME280;6460;42.684;23.260;2023-07-29T09:00:38;94427.63;;;29.75;32.28
12793;BME280;6460;42.684;23.260;2023-07-29T09:03:06;94430.88;;;29.74;31.66
12793;BME280;6460;42.684;23.260;2023-07-29T09:05:33;94419.88;;;30.00;31.24
12793;BME280;6460;42.684;23.260;2023-07-29T09:08:02;94428.16;;;30.34;30.96
12793;BME280;6460;42.684;23.260;2023-07-29T09:10:35;94416.34;;;30.85;30.21
12793;BME280;6460;42.684;23.260;2023-07-29T09:13:04;94413.84;;;31.13;29.50
12793;BME280;6460;42.684;23.260;2023-07-29T09:15:33;94409.41;;;31.27;29.90
12793;BME280;6460;42.684;23.260;2023-07-29T09:18:09;94408.78;;;31.48;30.01
12793;BME280;6460;42.684;23.260;2023-07-29T09:20:37;94403.63;;;31.62;29.31
12793;BME280;6460;42.684;23.260;2023-07-29T09:23:07;94406.03;;;31.48;29.16
12793;BME280;6460;42.684;23.260;2023-07-29T09:25:36;94411.69;;;30.97;28.63
12793;BME280;6460;42.684;23.260;2023-07-29T09:28:10;94411.75;;;31.08;28.32
12793;BME280;6460;42.684;23.260;2023-07-29T09:30:38;94409.66;;;30.98;28.24
12793;BME280;6460;42.684;23.260;2023-07-29T09:33:06;94407.69;;;30.78;29.15
12793;BME280;6460;42.684;23.260;2023-07-29T09:35:35;94407.47;;;31.38;27.67
12793;BME280;6460;42.684;23.260;2023-07-29T09:38:03;94396.56;;;30.98;28.14
12793;BME280;6460;42.684;23.260;2023-07-29T09:40:34;94391.03;;;31.72;27.35
12793;BME280;6460;42.684;23.260;2023-07-29T09:43:03;94384.31;;;31.95;27.27
12793;BME280;6460;42.684;23.260;2023-07-29T09:45:34;94379.06;;;32.03;26.65
12793;BME280;6460;42.684;23.260;2023-07-29T09:48:02;94382.50;;;31.81;26.52
12793;BME280;6460;42.684;23.260;2023-07-29T09:50:31;94385.09;;;32.01;27.10
12793;BME280;6460;42.684;23.260;2023-07-29T09:52:58;94386.50;;;32.22;26.19
12793;BME280;6460;42.684;23.260;2023-07-29T09:55:26;94383.72;;;32.33;26.02
12793;BME280;6460;42.684;23.260;2023-07-29T09:57:56;94379.22;;;32.53;25.38
12793;BME280;6460;42.684;23.260;2023-07-29T10:00:25;94382.94;;;32.27;25.74
12793;BME280;6460;42.684;23.260;2023-07-29T10:02:54;94378.28;;;32.61;25.45
12793;BME280;6460;42.684;23.260;2023-07-29T10:05:23;94370.09;;;32.41;25.40
12793;BME280;6460;42.684;23.260;2023-07-29T10:07:50;94373.84;;;32.27;26.19
12793;BME280;6460;42.684;23.260;2023-07-29T10:10:18;94367.66;;;32.71;25.66
12793;BME280;6460;42.684;23.260;2023-07-29T10:12:46;94370.47;;;32.98;25.56
12793;BME280;6460;42.684;23.260;2023-07-29T10:15:13;94363.63;;;32.83;24.93
12793;BME280;6460;42.684;23.260;2023-07-29T10:17:41;94358.56;;;32.98;23.88
12793;BME280;6460;42.684;23.260;2023-07-29T10:20:12;94351.22;;;32.84;24.26
12793;BME280;6460;42.684;23.260;2023-07-29T10:22:40;94350.19;;;33.53;23.40
12793;BME280;6460;42.684;23.260;2023-07-29T10:25:10;94347.66;;;33.50;23.71
12793;BME280;6460;42.684;23.260;2023-07-29T10:27:48;94336.25;;;33.42;23.67
12793;BME280;6460;42.684;23.260;2023-07-29T10:30:16;94348.19;;;33.21;23.89
12793;BME280;6460;42.684;23.260;2023-07-29T10:32:45;94342.34;;;33.46;24.19
12793;BME280;6460;42.684;23.260;2023-07-29T10:35:14;94331.72;;;33.28;23.90
12793;BME280;6460;42.684;23.260;2023-07-29T10:37:42;94329.84;;;33.81;24.27
12793;BME280;6460;42.684;23.260;2023-07-29T10:40:11;94329.22;;;34.16;23.97
12793;BME280;6460;42.684;23.260;2023-07-29T10:42:59;94325.53;;;34.43;23.00
12793;BME280;6460;42.684;23.260;2023-07-29T10:45:36;94328.72;;;34.06;22.09
12793;BME280;6460;42.684;23.260;2023-07-29T10:48:06;94326.97;;;34.03;23.05
12793;BME280;6460;42.684;23.260;2023-07-29T10:50:36;94323.19;;;34.52;22.51
12793;BME280;6460;42.684;23.260;2023-07-29T10:53:03;94321.03;;;34.70;21.81
12793;BME280;6460;42.684;23.260;2023-07-29T10:55:32;94316.81;;;34.93;21.56
12793;BME280;6460;42.684;23.260;2023-07-29T10:58:09;94309.50;;;34.43;22.28
12793;BME280;6460;42.684;23.260;2023-07-29T11:00:36;94306.47;;;33.95;22.65
12793;BME280;6460;42.684;23.260;2023-07-29T11:03:06;94303.28;;;34.26;23.30
12793;BME280;6460;42.684;23.260;2023-07-29T11:05:46;94309.69;;;34.56;22.35
12793;BME280;6460;42.684;23.260;2023-07-29T11:08:27;94302.75;;;34.69;22.29
12793;BME280;6460;42.684;23.260;2023-07-29T11:11:08;94295.47;;;34.60;21.85
12793;BME280;6460;42.684;23.260;2023-07-29T11:13:38;94303.59;;;34.17;22.16
12793;BME280;6460;42.684;23.260;2023-07-29T11:16:06;94298.84;;;34.01;21.82
12793;BME280;6460;42.684;23.260;2023-07-29T11:18:35;94290.50;;;34.42;22.58
12793;BME280;6460;42.684;23.260;2023-07-29T11:21:04;94295.25;;;34.52;21.30
12793;BME280;6460;42.684;23.260;2023-07-29T11:23:34;94297.88;;;34.39;21.48
12793;BME280;6460;42.684;23.260;2023-07-29T11:26:02;94300.09;;;34.52;21.60
12793;BME280;6460;42.684;23.260;2023-07-29T11:28:30;94293.81;;;35.11;20.57
12793;BME280;6460;42.684;23.260;2023-07-29T11:30:58;94296.03;;;35.18;20.76
12793;BME280;6460;42.684;23.260;2023-07-29T11:33:26;94286.56;;;35.51;20.73
12793;BME280;6460;42.684;23.260;2023-07-29T11:35:54;94285.19;;;35.82;20.03
12793;BME280;6460;42.684;23.260;2023-07-29T11:38:23;94282.34;;;36.06;19.73
12793;BME280;6460;42.684;23.260;2023-07-29T11:40:55;94274.56;;;35.99;19.31
12793;BME280;6460;42.684;23.260;2023-07-29T11:43:23;94274.78;;;35.82;19.76
12793;BME280;6460;42.684;23.260;2023-07-29T11:45:51;94273.03;;;35.98;19.68
12793;BME280;6460;42.684;23.260;2023-07-29T11:48:26;94276.72;;;35.87;19.14
12793;BME280;6460;42.684;23.260;2023-07-29T11:50:54;94283.34;;;35.17;19.25
12793;BME280;6460;42.684;23.260;2023-07-29T11:53:26;94275.44;;;35.21;19.82
12793;BME280;6460;42.684;23.260;2023-07-29T11:55:54;94266.09;;;35.37;19.24
12793;BME280;6460;42.684;23.260;2023-07-29T11:58:22;94277.94;;;34.60;18.54
12793;BME280;6460;42.684;23.260;2023-07-29T12:00:49;94280.56;;;34.00;19.00
12793;BME280;6460;42.684;23.260;2023-07-29T12:03:18;94262.16;;;34.32;19.30
12793;BME280;6460;42.684;23.260;2023-07-29T12:05:46;94263.44;;;34.96;19.31
12793;BME280;6460;42.684;23.260;2023-07-29T12:08:14;94257.75;;;35.13;18.89
12793;BME280;6460;42.684;23.260;2023-07-29T12:10:43;94260.03;;;34.44;19.43
12793;BME280;6460;42.684;23.260;2023-07-29T12:13:11;94264.91;;;35.03;18.77
12793;BME280;6460;42.684;23.260;2023-07-29T12:15:38;94258.91;;;34.93;19.13
12793;BME280;6460;42.684;23.260;2023-07-29T12:18:06;94258.88;;;35.23;19.03
12793;BME280;6460;42.684;23.260;2023-07-29T12:20:34;94255.28;;;34.98;18.66
12793;BME280;6460;42.684;23.260;2023-07-29T12:23:01;94252.22;;;35.02;18.56
12793;BME280;6460;42.684;23.260;2023-07-29T12:25:31;94244.91;;;35.23;18.79
12793;BME280;6460;42.684;23.260;2023-07-29T12:28:04;94251.19;;;35.53;18.37
12793;BME280;6460;42.684;23.260;2023-07-29T12:30:32;94240.00;;;35.53;18.21
12793;BME280;6460;42.684;23.260;2023-07-29T12:32:59;94241.75;;;35.56;18.19
12793;BME280;6460;42.684;23.260;2023-07-29T12:35:37;94243.16;;;35.44;18.62
12793;BME280;6460;42.684;23.260;2023-07-29T12:38:05;94243.69;;;34.89;18.87
12793;BME280;6460;42.684;23.260;2023-07-29T12:40:32;94255.94;;;34.50;19.39
12793;BME280;6460;42.684;23.260;2023-07-29T12:43:00;94239.22;;;35.10;18.50
12793;BME280;6460;42.684;23.260;2023-07-29T12:45:35;94243.03;;;35.55;18.95
12793;BME280;6460;42.684;23.260;2023-07-29T12:48:05;94246.41;;;35.00;19.00
12793;BME280;6460;42.684;23.260;2023-07-29T12:50:32;94241.16;;;34.61;19.35
12793;BME280;6460;42.684;23.260;2023-07-29T12:53:00;94240.47;;;35.09;19.27
12793;BME280;6460;42.684;23.260;2023-07-29T12:55:27;94245.13;;;35.49;18.62
12793;BME280;6460;42.684;23.260;2023-07-29T12:57:54;94247.59;;;35.10;18.47
12793;BME280;6460;42.684;23.260;2023-07-29T13:00:24;94247.75;;;34.88;18.44
12793;BME280;6460;42.684;23.260;2023-07-29T13:02:53;94249.28;;;34.18;18.87
12793;BME280;6460;42.684;23.260;2023-07-29T13:05:19;94239.03;;;34.37;19.69
12793;BME280;6460;42.684;23.260;2023-07-29T13:07:47;94238.41;;;35.15;19.17
12793;BME280;6460;42.684;23.260;2023-07-29T13:10:14;94234.31;;;35.40;18.22
12793;BME280;6460;42.684;23.260;2023-07-29T13:12:42;94229.63;;;35.73;17.81
12793;BME280;6460;42.684;23.260;2023-07-29T13:15:09;94227.81;;;35.75;18.02
12793;BME280;6460;42.684;23.260;2023-07-29T13:17:37;94223.56;;;35.69;18.12
12793;BME280;6460;42.684;23.260;2023-07-29T13:20:07;94220.72;;;36.30;17.97
12793;BME280;6460;42.684;23.260;2023-07-29T13:22:35;94220.94;;;36.32;18.27
12793;BME280;6460;42.684;23.260;2023-07-29T13:25:03;94235.38;;;35.99;17.20
12793;BME280;6460;42.684;23.260;2023-07-29T13:27:30;94227.78;;;36.18;17.74
12793;BME280;6460;42.684;23.260;2023-07-29T13:29:58;94220.19;;;36.13;17.42
12793;BME280;6460;42.684;23.260;2023-07-29T13:32:25;94214.56;;;36.50;17.83
12793;BME280;6460;42.684;23.260;2023-07-29T13:34:52;94212.13;;;37.05;17.35
12793;BME280;6460;42.684;23.260;2023-07-29T13:37:21;94217.00;;;36.22;17.54
12793;BME280;6460;42.684;23.260;2023-07-29T13:39:48;94213.28;;;36.33;17.47
12793;BME280;6460;42.684;23.260;2023-07-29T13:42:16;94219.03;;;36.40;17.79
12793;BME280;6460;42.684;23.260;2023-07-29T13:44:43;94209.38;;;36.04;17.90
12793;BME280;6460;42.684;23.260;2023-07-29T13:47:11;94198.97;;;36.55;17.61
12793;BME280;6460;42.684;23.260;2023-07-29T13:49:38;94196.75;;;36.80;17.72
12793;BME280;6460;42.684;23.260;2023-07-29T13:52:06;94200.81;;;36.34;17.91
12793;BME280;6460;42.684;23.260;2023-07-29T13:54:35;94190.06;;;36.70;17.76
12793;BME280;6460;42.684;23.260;2023-07-29T13:57:03;94193.56;;;36.89;17.56
12793;BME280;6460;42.684;23.260;2023-07-29T13:59:32;94190.84;;;36.51;17.90
12793;BME280;6460;42.684;23.260;2023-07-29T14:01:59;94189.88;;;36.81;18.95
12793;BME280;6460;42.684;23.260;2023-07-29T14:04:27;94185.34;;;36.78;17.78
12793;BME280;6460;42.684;23.260;2023-07-29T14:06:55;94184.25;;;36.81;17.79
12793;BME280;6460;42.684;23.260;2023-07-29T14:09:23;94178.16;;;36.50;18.53
12793;BME280;6460;42.684;23.260;2023-07-29T14:11:51;94181.38;;;36.04;18.50
12793;BME280;6460;42.684;23.260;2023-07-29T14:14:19;94180.50;;;36.15;18.48
12793;BME280;6460;42.684;23.260;2023-07-29T14:16:46;94181.06;;;36.26;18.29
12793;BME280;6460;42.684;23.260;2023-07-29T14:19:14;94175.88;;;36.17;19.08
12793;BME280;6460;42.684;23.260;2023-07-29T14:21:42;94165.06;;;35.89;20.40
12793;BME280;6460;42.684;23.260;2023-07-29T14:24:09;94158.88;;;35.59;20.74
12793;BME280;6460;42.684;23.260;2023-07-29T14:26:36;94163.56;;;35.88;20.55
12793;BME280;6460;42.684;23.260;2023-07-29T14:29:05;94163.63;;;36.01;20.35
12793;BME280;6460;42.684;23.260;2023-07-29T14:31:33;94165.59;;;35.88;20.79
12793;BME280;6460;42.684;23.260;2023-07-29T14:34:00;94169.47;;;35.66;20.71
12793;BME280;6460;42.684;23.260;2023-07-29T14:36:27;94170.06;;;35.16;20.90
12793;BME280;6460;42.684;23.260;2023-07-29T14:38:55;94177.84;;;34.99;21.22
12793;BME280;6460;42.684;23.260;2023-07-29T14:41:22;94179.72;;;34.91;21.99
12793;BME280;6460;42.684;23.260;2023-07-29T14:43:50;94172.88;;;34.56;22.30
12793;BME280;6460;42.684;23.260;2023-07-29T14:46:19;94173.75;;;34.16;22.49
12793;BME280;6460;42.684;23.260;2023-07-29T14:48:46;94175.22;;;33.82;23.67
12793;BME280;6460;42.684;23.260;2023-07-29T14:51:14;94173.88;;;33.42;25.71
12793;BME280;6460;42.684;23.260;2023-07-29T14:53:41;94177.53;;;33.09;26.29
12793;BME280;6460;42.684;23.260;2023-07-29T14:56:09;94175.09;;;32.67;26.42
12793;BME280;6460;42.684;23.260;2023-07-29T14:58:36;94176.38;;;32.38;26.97
12793;BME280;6460;42.684;23.260;2023-07-29T15:01:03;94184.19;;;32.34;27.44
12793;BME280;6460;42.684;23.260;2023-07-29T15:03:32;94176.34;;;32.43;27.52
12793;BME280;6460;42.684;23.260;2023-07-29T15:05:59;94173.09;;;32.45;27.57
12793;BME280;6460;42.684;23.260;2023-07-29T15:08:28;94183.19;;;32.26;26.92
12793;BME280;6460;42.684;23.260;2023-07-29T15:10:56;94188.75;;;32.31;27.00
12793;BME280;6460;42.684;23.260;2023-07-29T15:13:23;94189.75;;;32.17;27.38
12793;BME280;6460;42.684;23.260;2023-07-29T15:15:51;94177.84;;;32.00;28.27
12793;BME280;6460;42.684;23.260;2023-07-29T15:18:18;94185.41;;;31.88;28.48
12793;BME280;6460;42.684;23.260;2023-07-29T15:20:47;94183.59;;;31.69;28.60
12793;BME280;6460;42.684;23.260;2023-07-29T15:23:14;94190.41;;;31.68;29.22
12793;BME280;6460;42.684;23.260;2023-07-29T15:25:41;94184.09;;;31.73;29.39
12793;BME280;6460;42.684;23.260;2023-07-29T15:28:09;94193.97;;;31.74;29.48
12793;BME280;6460;42.684;23.260;2023-07-29T15:30:36;94194.94;;;31.60;28.74
12793;BME280;6460;42.684;23.260;2023-07-29T15:33:04;94192.91;;;31.55;29.08
12793;BME280;6460;42.684;23.260;2023-07-29T15:35:36;94194.16;;;31.59;29.34
12793;BME280;6460;42.684;23.260;2023-07-29T15:38:06;94194.16;;;31.54;29.30
12793;BME280;6460;42.684;23.260;2023-07-29T15:40:34;94200.75;;;31.62;29.43
12793;BME280;6460;42.684;23.260;2023-07-29T15:43:01;94198.22;;;31.64;29.47
12793;BME280;6460;42.684;23.260;2023-07-29T15:45:28;94197.72;;;31.60;29.29
12793;BME280;6460;42.684;23.260;2023-07-29T15:47:56;94204.38;;;31.90;29.09
12793;BME280;6460;42.684;23.260;2023-07-29T15:50:23;94200.63;;;32.48;28.74
12793;BME280;6460;42.684;23.260;2023-07-29T15:52:51;94197.31;;;32.89;28.48
12793;BME280;6460;42.684;23.260;2023-07-29T15:55:20;94206.38;;;33.23;28.54
12793;BME280;6460;42.684;23.260;2023-07-29T15:57:47;94205.59;;;33.33;27.48
12793;BME280;6460;42.684;23.260;2023-07-29T16:00:15;94212.19;;;33.30;27.96
12793;BME280;6460;42.684;23.260;2023-07-29T16:02:42;94206.38;;;33.06;27.61
12793;BME280;6460;42.684;23.260;2023-07-29T16:05:10;94210.72;;;32.96;27.57
12793;BME280;6460;42.684;23.260;2023-07-29T16:07:37;94217.06;;;32.74;27.81
12793;BME280;6460;42.684;23.260;2023-07-29T16:10:06;94214.31;;;32.80;27.79
12793;BME280;6460;42.684;23.260;2023-07-29T16:12:35;94229.47;;;32.68;28.40
12793;BME280;6460;42.684;23.260;2023-07-29T16:15:04;94224.69;;;32.52;28.28
12793;BME280;6460;42.684;23.260;2023-07-29T16:17:32;94228.72;;;32.84;27.89
12793;BME280;6460;42.684;23.260;2023-07-29T16:20:01;94231.50;;;32.56;28.36
12793;BME280;6460;42.684;23.260;2023-07-29T16:22:29;94233.78;;;32.41;28.47
12793;BME280;6460;42.684;23.260;2023-07-29T16:24:56;94231.75;;;32.19;28.71
12793;BME280;6460;42.684;23.260;2023-07-29T16:27:23;94237.50;;;31.99;28.89
12793;BME280;6460;42.684;23.260;2023-07-29T16:29:53;94231.69;;;31.97;28.53
12793;BME280;6460;42.684;23.260;2023-07-29T16:32:20;94243.28;;;31.90;29.14
12793;BME280;6460;42.684;23.260;2023-07-29T16:34:48;94243.47;;;31.70;29.46
12793;BME280;6460;42.684;23.260;2023-07-29T16:37:15;94246.94;;;31.54;29.89
12793;BME280;6460;42.684;23.260;2023-07-29T16:39:42;94252.38;;;31.31;30.23
12793;BME280;6460;42.684;23.260;2023-07-29T16:42:10;94259.50;;;31.43;29.92
12793;BME280;6460;42.684;23.260;2023-07-29T16:44:37;94255.28;;;31.59;29.79
12793;BME280;6460;42.684;23.260;2023-07-29T16:47:07;94258.13;;;31.76;29.65
12793;BME280;6460;42.684;23.260;2023-07-29T16:49:36;94262.19;;;31.75;29.55
12793;BME280;6460;42.684;23.260;2023-07-29T16:52:05;94278.56;;;31.62;29.76
12793;BME280;6460;42.684;23.260;2023-07-29T16:54:32;94271.28;;;31.27;29.84
12793;BME280;6460;42.684;23.260;2023-07-29T16:56:59;94273.28;;;31.21;29.72
12793;BME280;6460;42.684;23.260;2023-07-29T16:59:27;94272.31;;;30.93;30.21
12793;BME280;6460;42.684;23.260;2023-07-29T17:01:54;94278.47;;;30.71;30.82
12793;BME280;6460;42.684;23.260;2023-07-29T17:04:23;94285.66;;;30.58;31.38
12793;BME280;6460;42.684;23.260;2023-07-29T17:06:50;94287.59;;;30.46;31.37
12793;BME280;6460;42.684;23.260;2023-07-29T17:09:18;94288.19;;;30.30;31.54
12793;BME280;6460;42.684;23.260;2023-07-29T17:11:45;94292.31;;;30.14;31.54
12793;BME280;6460;42.684;23.260;2023-07-29T17:14:13;94292.34;;;29.94;31.56
12793;BME280;6460;42.684;23.260;2023-07-29T17:16:39;94295.38;;;29.76;31.80
12793;BME280;6460;42.684;23.260;2023-07-29T17:19:07;94292.25;;;29.68;31.94
12793;BME280;6460;42.684;23.260;2023-07-29T17:21:36;94297.53;;;29.66;32.06
12793;BME280;6460;42.684;23.260;2023-07-29T17:24:03;94298.38;;;29.52;32.08
12793;BME280;6460;42.684;23.260;2023-07-29T17:26:31;94294.84;;;29.31;32.21
12793;BME280;6460;42.684;23.260;2023-07-29T17:28:58;94296.00;;;29.10;32.42
12793;BME280;6460;42.684;23.260;2023-07-29T17:31:26;94295.03;;;28.93;32.84
12793;BME280;6460;42.684;23.260;2023-07-29T17:33:53;94298.94;;;28.86;33.09
12793;BME280;6460;42.684;23.260;2023-07-29T17:36:20;94300.09;;;28.80;32.89
12793;BME280;6460;42.684;23.260;2023-07-29T17:38:49;94301.06;;;28.77;33.00
12793;BME280;6460;42.684;23.260;2023-07-29T17:41:16;94308.03;;;28.72;33.08
12793;BME280;6460;42.684;23.260;2023-07-29T17:43:44;94310.03;;;28.72;33.15
12793;BME280;6460;42.684;23.260;2023-07-29T17:46:13;94324.53;;;28.67;33.14
12793;BME280;6460;42.684;23.260;2023-07-29T17:48:42;94320.03;;;28.69;33.45
12793;BME280;6460;42.684;23.260;2023-07-29T17:51:10;94324.16;;;28.74;33.18
12793;BME280;6460;42.684;23.260;2023-07-29T17:53:37;94328.31;;;28.55;33.82
12793;BME280;6460;42.684;23.260;2023-07-29T17:56:06;94324.59;;;28.58;34.00
12793;BME280;6460;42.684;23.260;2023-07-29T17:58:34;94332.59;;;28.41;34.62
12793;BME280;6460;42.684;23.260;2023-07-29T18:01:02;94326.78;;;28.24;35.71
12793;BME280;6460;42.684;23.260;2023-07-29T18:03:29;94324.88;;;28.30;35.86
12793;BME280;6460;42.684;23.260;2023-07-29T18:05:56;94329.06;;;28.11;36.91
12793;BME280;6460;42.684;23.260;2023-07-29T18:08:24;94331.00;;;28.20;37.05
12793;BME280;6460;42.684;23.260;2023-07-29T18:10:51;94333.34;;;28.12;37.22
12793;BME280;6460;42.684;23.260;2023-07-29T18:13:20;94330.31;;;28.10;37.46
12793;BME280;6460;42.684;23.260;2023-07-29T18:15:51;94330.91;;;28.14;37.42
12793;BME280;6460;42.684;23.260;2023-07-29T18:18:18;94339.91;;;27.76;38.62
12793;BME280;6460;42.684;23.260;2023-07-29T18:20:48;94336.72;;;27.93;38.44
12793;BME280;6460;42.684;23.260;2023-07-29T18:23:16;94343.66;;;27.88;38.57
12793;BME280;6460;42.684;23.260;2023-07-29T18:25:43;94333.75;;;27.81;38.98
12793;BME280;6460;42.684;23.260;2023-07-29T18:28:11;94347.44;;;27.76;39.49
12793;BME280;6460;42.684;23.260;2023-07-29T18:30:42;94348.25;;;27.67;39.69
12793;BME280;6460;42.684;23.260;2023-07-29T18:33:10;94341.47;;;27.54;40.09
12793;BME280;6460;42.684;23.260;2023-07-29T18:35:40;94349.66;;;27.39;40.49
12793;BME280;6460;42.684;23.260;2023-07-29T18:38:08;94350.63;;;27.27;41.27
12793;BME280;6460;42.684;23.260;2023-07-29T18:40:36;94345.75;;;27.22;41.50
12793;BME280;6460;42.684;23.260;2023-07-29T18:43:03;94350.22;;;27.19;41.93
12793;BME280;6460;42.684;23.260;2023-07-29T18:45:32;94355.72;;;27.19;42.02
12793;BME280;6460;42.684;23.260;2023-07-29T18:48:01;94355.50;;;27.08;42.45
12793;BME280;6460;42.684;23.260;2023-07-29T18:50:28;94366.00;;;27.19;42.09
12793;BME280;6460;42.684;23.260;2023-07-29T18:52:56;94357.88;;;27.24;42.06
12793;BME280;6460;42.684;23.260;2023-07-29T18:55:24;94363.72;;;27.17;42.15
12793;BME280;6460;42.684;23.260;2023-07-29T18:57:52;94358.63;;;27.25;42.12
12793;BME280;6460;42.684;23.260;2023-07-29T19:00:20;94362.50;;;27.18;42.52
12793;BME280;6460;42.684;23.260;2023-07-29T19:02:47;94362.44;;;27.27;42.54
12793;BME280;6460;42.684;23.260;2023-07-29T19:05:16;94363.22;;;27.28;42.25
12793;BME280;6460;42.684;23.260;2023-07-29T19:07:44;94360.91;;;27.26;42.14
12793;BME280;6460;42.684;23.260;2023-07-29T19:10:11;94366.25;;;27.30;42.46
12793;BME280;6460;42.684;23.260;2023-07-29T19:12:39;94381.16;;;27.23;42.88
12793;BME280;6460;42.684;23.260;2023-07-29T19:15:09;94376.28;;;27.18;43.18
12793;BME280;6460;42.684;23.260;2023-07-29T19:17:36;94389.56;;;26.78;44.88
12793;BME280;6460;42.684;23.260;2023-07-29T19:20:04;94380.63;;;26.05;46.97
12793;BME280;6460;42.684;23.260;2023-07-29T19:22:34;94384.16;;;26.14;46.96
12793;BME280;6460;42.684;23.260;2023-07-29T19:25:01;94380.19;;;26.15;47.17
12793;BME280;6460;42.684;23.260;2023-07-29T19:27:29;94381.72;;;26.35;46.65
12793;BME280;6460;42.684;23.260;2023-07-29T19:29:56;94376.16;;;26.53;46.08
12793;BME280;6460;42.684;23.260;2023-07-29T19:32:24;94380.28;;;26.66;46.32
12793;BME280;6460;42.684;23.260;2023-07-29T19:34:52;94383.94;;;26.72;46.88
12793;BME280;6460;42.684;23.260;2023-07-29T19:37:21;94381.47;;;26.74;47.09
12793;BME280;6460;42.684;23.260;2023-07-29T19:39:50;94379.22;;;26.64;47.27
12793;BME280;6460;42.684;23.260;2023-07-29T19:42:17;94384.00;;;26.54;47.93
12793;BME280;6460;42.684;23.260;2023-07-29T19:44:45;94383.56;;;26.38;48.68
12793;BME280;6460;42.684;23.260;2023-07-29T19:47:12;94386.91;;;26.42;48.56
12793;BME280;6460;42.684;23.260;2023-07-29T19:49:40;94382.28;;;26.57;48.18
12793;BME280;6460;42.684;23.260;2023-07-29T19:52:07;94383.38;;;26.50;48.27
12793;BME280;6460;42.684;23.260;2023-07-29T19:54:35;94387.84;;;25.84;51.03
12793;BME280;6460;42.684;23.260;2023-07-29T19:57:04;94395.13;;;25.60;52.42
12793;BME280;6460;42.684;23.260;2023-07-29T19:59:32;94381.50;;;25.56;53.31
12793;BME280;6460;42.684;23.260;2023-07-29T20:02:00;94390.00;;;24.91;56.43